createdAt,value
2018-06-01T00:01:24.099Z,98.50
2018-06-01T00:03:51.623Z,99.10
2018-06-01T00:06:20.006Z,99.90
2018-06-01T00:08:47.828Z,99.90
2018-06-01T00:11:15.395Z,99.90
2018-06-01T00:13:42.934Z,99.90
2018-06-01T00:16:10.470Z,99.90
2018-06-01T00:18:38.881Z,99.90
2018-06-01T00:21:06.448Z,99.90
2018-06-01T00:23:34.140Z,99.90
2018-06-01T00:26:01.876Z,99.90
2018-06-01T00:28:29.371Z,99.90
2018-06-01T00:30:56.912Z,99.90
2018-06-01T00:33:24.632Z,99.90
2018-06-01T00:35:52.194Z,99.90
2018-06-01T00:38:19.713Z,99.90
2018-06-01T00:40:47.455Z,99.90
2018-06-01T00:43:15.000Z,99.90
2018-06-01T00:45:42.494Z,99.90
2018-06-01T00:48:10.308Z,99.90
2018-06-01T00:50:37.818Z,99.90
2018-06-01T00:53:05.518Z,99.90
2018-06-01T00:55:33.047Z,99.90
2018-06-01T00:58:01.318Z,99.90
2018-06-01T01:00:28.834Z,99.90
2018-06-01T01:02:56.379Z,99.90
2018-06-01T01:05:23.932Z,99.90
2018-06-01T01:07:51.692Z,99.90
2018-06-01T01:10:19.341Z,99.90
2018-06-01T01:12:47.669Z,99.90
2018-06-01T01:15:15.278Z,99.90
2018-06-01T01:17:42.822Z,99.90
2018-06-01T01:20:10.356Z,99.90
2018-06-01T01:22:38.408Z,99.90
2018-06-01T01:25:05.934Z,99.90
2018-06-01T01:27:33.606Z,99.90
2018-06-01T01:30:01.136Z,99.90
2018-06-01T01:32:29.062Z,99.90
2018-06-01T01:34:56.597Z,99.90
2018-06-01T01:37:30.976Z,99.90
2018-06-01T01:39:58.707Z,99.90
2018-06-01T01:42:26.289Z,99.90
2018-06-01T01:44:53.848Z,99.90
2018-06-01T01:47:21.442Z,99.90
2018-06-01T01:49:53.938Z,99.90
2018-06-01T01:52:21.578Z,99.90
2018-06-01T01:54:49.106Z,99.90
2018-06-01T01:57:16.722Z,99.90
2018-06-01T01:59:44.460Z,99.90
2018-06-01T02:02:11.963Z,99.90
2018-06-01T02:04:39.483Z,99.90
2018-06-01T02:07:07.752Z,99.90
2018-06-01T02:09:35.711Z,99.90
2018-06-01T02:12:03.592Z,99.90
2018-06-01T02:14:32.118Z,99.90
2018-06-01T02:16:59.631Z,99.90
2018-06-01T02:19:27.141Z,99.90
2018-06-01T02:21:54.657Z,99.90
2018-06-01T02:24:22.197Z,99.90
2018-06-01T02:26:49.726Z,99.90
2018-06-01T02:29:17.291Z,99.90
2018-06-01T02:31:44.817Z,99.90
2018-06-01T02:34:12.351Z,99.90
2018-06-01T02:36:40.548Z,99.90
2018-06-01T02:39:08.085Z,99.90
2018-06-01T02:41:37.541Z,99.90
2018-06-01T02:44:05.047Z,99.90
2018-06-01T02:46:32.903Z,99.90
2018-06-01T02:49:00.421Z,99.90
2018-06-01T02:51:28.211Z,99.90
2018-06-01T02:53:55.758Z,99.90
2018-06-01T02:56:23.263Z,99.90
2018-06-01T02:58:50.875Z,99.90
2018-06-01T03:01:18.449Z,99.90
2018-06-01T03:03:45.999Z,99.90
2018-06-01T03:06:13.535Z,99.90
2018-06-01T03:08:41.043Z,99.90
2018-06-01T03:11:08.550Z,99.90
2018-06-01T03:13:36.446Z,99.90
2018-06-01T03:16:04.000Z,99.90
2018-06-01T03:18:31.667Z,99.90
2018-06-01T03:20:59.734Z,99.90
2018-06-01T03:23:27.632Z,99.90
2018-06-01T03:25:55.117Z,99.90
2018-06-01T03:28:22.644Z,99.90
2018-06-01T03:30:50.418Z,99.90
2018-06-01T03:33:18.098Z,99.90
2018-06-01T03:35:45.866Z,99.90
2018-06-01T03:38:13.516Z,99.90
2018-06-01T03:40:41.078Z,99.90
2018-06-01T03:43:08.602Z,99.90
2018-06-01T03:45:36.887Z,99.90
2018-06-01T03:48:04.486Z,99.90
2018-06-01T03:50:32.828Z,99.90
2018-06-01T03:53:00.446Z,99.90
2018-06-01T03:55:28.827Z,99.90
2018-06-01T03:57:56.328Z,99.90
2018-06-01T04:00:23.838Z,99.90
2018-06-01T04:02:51.378Z,99.90
2018-06-01T04:05:19.093Z,99.90
2018-06-01T04:07:46.844Z,98.90
2018-06-01T04:10:14.704Z,96.70
2018-06-01T04:12:42.180Z,95.10
2018-06-01T04:15:09.719Z,94.40
2018-06-01T04:17:37.290Z,95.30
2018-06-01T04:20:04.828Z,94.80
2018-06-01T04:22:33.101Z,90.90
2018-06-01T04:25:00.613Z,90.50
2018-06-01T04:27:28.287Z,84.60
2018-06-01T04:29:55.841Z,80.00
2018-06-01T04:32:23.359Z,74.20
2018-06-01T04:34:51.653Z,68.10
2018-06-01T04:37:19.881Z,68.20
2018-06-01T04:39:47.407Z,66.50
2018-06-01T04:42:14.917Z,63.90
2018-06-01T04:44:43.283Z,59.60
2018-06-01T04:47:10.980Z,59.40
2018-06-01T04:49:38.695Z,60.80
2018-06-01T04:52:06.301Z,57.50
2018-06-01T04:54:33.851Z,55.30
2018-06-01T04:57:01.520Z,53.20
2018-06-01T04:59:29.033Z,50.30
2018-06-01T05:01:56.590Z,48.70
2018-06-01T05:04:24.609Z,48.70
2018-06-01T05:06:52.303Z,48.90
2018-06-01T05:09:19.943Z,47.30
2018-06-01T05:11:47.468Z,45.90
2018-06-01T05:14:15.096Z,45.00
2018-06-01T05:16:42.771Z,43.20
2018-06-01T05:19:10.270Z,43.40
2018-06-01T05:21:39.330Z,39.70
2018-06-01T05:24:06.971Z,39.60
2018-06-01T05:26:34.577Z,37.40
2018-06-01T05:29:03.015Z,37.20
2018-06-01T05:31:31.239Z,37.20
2018-06-01T05:33:59.012Z,36.90
2018-06-01T05:36:27.749Z,34.60
2018-06-01T05:38:55.283Z,35.10
2018-06-01T05:41:23.004Z,33.50
2018-06-01T05:43:50.688Z,33.20
2018-06-01T05:46:19.001Z,34.10
2018-06-01T05:48:46.546Z,34.10
2018-06-01T05:51:14.063Z,33.60
2018-06-01T05:53:41.627Z,33.60
2018-06-01T05:56:09.853Z,34.70
2018-06-01T05:58:37.440Z,34.10
2018-06-01T06:01:05.086Z,34.60
2018-06-01T06:03:32.694Z,33.60
2018-06-01T06:06:00.258Z,33.20
2018-06-01T06:08:27.816Z,32.90
2018-06-01T06:10:55.426Z,33.00
2018-06-01T06:13:23.179Z,32.20
2018-06-01T06:15:51.648Z,32.00
2018-06-01T06:18:19.216Z,31.70
2018-06-01T06:20:46.763Z,31.10
2018-06-01T06:23:14.320Z,30.30
2018-06-01T06:25:41.900Z,30.80
2018-06-01T06:28:09.478Z,29.70
2018-06-01T06:30:37.018Z,29.50
2018-06-01T06:33:04.544Z,29.10
2018-06-01T06:35:32.830Z,28.60
2018-06-01T06:38:00.361Z,28.80
2018-06-01T06:40:27.894Z,30.10
2018-06-01T06:42:55.581Z,31.50
2018-06-01T06:45:23.144Z,31.40
2018-06-01T06:47:50.768Z,31.60
2018-06-01T06:50:18.350Z,31.50
2018-06-01T06:52:46.094Z,31.10
2018-06-01T06:55:13.904Z,31.20
2018-06-01T06:57:41.402Z,30.00
2018-06-01T07:00:09.012Z,29.70
2018-06-01T07:02:36.632Z,29.10
2018-06-01T07:05:04.225Z,29.00
2018-06-01T07:07:32.590Z,28.70
2018-06-01T07:10:00.150Z,28.90
2018-06-01T07:12:27.878Z,28.50
2018-06-01T07:14:56.314Z,28.40
2018-06-01T07:17:23.827Z,28.40
2018-06-01T07:19:51.459Z,28.90
2018-06-01T07:22:19.120Z,28.80
2018-06-01T07:24:46.668Z,28.90
2018-06-01T07:27:15.351Z,28.60
2018-06-01T07:29:42.880Z,28.40
2018-06-01T07:32:10.414Z,29.20
2018-06-01T07:34:38.698Z,30.20
2018-06-01T07:37:06.372Z,30.10
2018-06-01T07:39:33.882Z,30.00
2018-06-01T07:42:01.509Z,30.00
2018-06-01T07:44:29.141Z,30.00
2018-06-01T07:46:56.701Z,31.00
2018-06-01T07:49:25.009Z,34.90
2018-06-01T07:51:52.606Z,34.90
2018-06-01T07:54:20.273Z,35.00
2018-06-01T07:56:48.345Z,36.10
2018-06-01T07:59:15.850Z,36.40
2018-06-01T08:01:43.371Z,36.20
2018-06-01T08:04:10.977Z,38.20
2018-06-01T08:06:38.547Z,38.60
2018-06-01T08:09:06.087Z,38.60
2018-06-01T08:11:33.627Z,37.80
2018-06-01T08:14:02.670Z,36.20
2018-06-01T08:16:30.201Z,36.20
2018-06-01T08:18:57.733Z,35.50
2018-06-01T08:21:25.271Z,34.70
2018-06-01T08:23:53.107Z,34.90
2018-06-01T08:26:20.839Z,34.30
2018-06-01T08:28:48.398Z,33.40
2018-06-01T08:31:15.963Z,33.90
2018-06-01T08:33:43.515Z,34.00
2018-06-01T08:36:11.102Z,36.50
2018-06-01T08:38:38.661Z,37.10
2018-06-01T08:41:06.529Z,40.10
2018-06-01T08:43:34.217Z,40.30
2018-06-01T08:46:02.281Z,41.10
2018-06-01T08:48:30.127Z,43.40
2018-06-01T08:50:57.786Z,41.70
2018-06-01T08:53:26.090Z,42.40
2018-06-01T08:55:53.635Z,42.60
2018-06-01T08:58:21.165Z,43.10
2018-06-01T09:00:48.835Z,42.20
2018-06-01T09:03:16.475Z,42.30
2018-06-01T09:05:44.688Z,45.40
2018-06-01T09:08:12.228Z,42.40
2018-06-01T09:10:39.833Z,42.30
2018-06-01T09:13:07.491Z,43.70
2018-06-01T09:15:35.153Z,43.20
2018-06-01T09:18:03.110Z,45.40
2018-06-01T09:20:30.833Z,45.40
2018-06-01T09:22:59.178Z,43.80
2018-06-01T09:25:26.851Z,42.90
2018-06-01T09:27:54.724Z,43.30
2018-06-01T09:30:23.206Z,43.50
2018-06-01T09:32:51.665Z,41.30
2018-06-01T09:35:19.717Z,41.30
2018-06-01T09:37:47.260Z,40.80
2018-06-01T09:40:15.571Z,40.50
2018-06-01T09:42:43.320Z,40.60
2018-06-01T09:45:11.046Z,40.90
2018-06-01T09:47:38.836Z,40.70
2018-06-01T09:50:06.595Z,41.60
2018-06-01T09:52:34.489Z,40.30
2018-06-01T09:55:02.037Z,39.00
2018-06-01T09:57:30.745Z,38.00
2018-06-01T09:59:58.588Z,38.40
2018-06-01T10:02:27.501Z,37.00
2018-06-01T10:04:55.455Z,36.90
2018-06-01T10:07:23.681Z,37.20
2018-06-01T10:09:57.127Z,38.40
2018-06-01T10:12:24.702Z,38.00
2018-06-01T10:14:52.305Z,38.60
2018-06-01T10:17:20.743Z,37.30
2018-06-01T10:19:48.395Z,38.10
2018-06-01T10:22:15.998Z,36.90
2018-06-01T10:24:45.473Z,36.00
2018-06-01T10:27:13.066Z,36.40
2018-06-01T10:29:41.465Z,36.40
2018-06-01T10:32:09.893Z,36.20
2018-06-01T10:34:37.799Z,36.30
2018-06-01T10:37:05.929Z,36.10
2018-06-01T10:39:34.244Z,36.10
2018-06-01T10:42:01.897Z,37.80
2018-06-01T10:44:29.521Z,37.80
2018-06-01T10:46:57.653Z,38.20
2018-06-01T10:49:26.733Z,40.70
2018-06-01T10:51:55.217Z,40.70
2018-06-01T10:54:23.448Z,41.50
2018-06-01T10:56:51.013Z,41.40
2018-06-01T10:59:18.807Z,41.20
2018-06-01T11:01:46.534Z,42.50
2018-06-01T11:04:14.209Z,43.00
2018-06-01T11:06:41.976Z,43.40
2018-06-01T11:09:10.043Z,47.70
2018-06-01T11:11:37.804Z,46.10
2018-06-01T11:14:05.357Z,47.00
2018-06-01T11:16:33.034Z,46.80
2018-06-01T11:19:00.598Z,49.20
2018-06-01T11:21:28.865Z,47.30
2018-06-01T11:23:56.443Z,48.80
2018-06-01T11:26:24.522Z,51.30
2018-06-01T11:28:52.804Z,51.60
2018-06-01T11:31:20.601Z,54.80
2018-06-01T11:33:49.116Z,54.10
2018-06-01T11:36:16.690Z,54.50
2018-06-01T11:38:46.655Z,53.40
2018-06-01T11:41:15.665Z,51.50
2018-06-01T11:43:43.306Z,51.50
2018-06-01T11:46:10.896Z,52.80
2018-06-01T11:48:39.198Z,54.10
2018-06-01T11:51:06.884Z,54.20
2018-06-01T11:53:34.631Z,55.60
2018-06-01T11:56:02.168Z,53.90
2018-06-01T11:58:29.951Z,53.80
2018-06-01T12:00:57.676Z,53.90
2018-06-01T12:03:25.997Z,54.20
2018-06-01T12:05:53.593Z,54.10
2018-06-01T12:08:22.543Z,53.10
2018-06-01T12:10:50.330Z,53.20
2018-06-01T12:13:17.875Z,54.00
2018-06-01T12:15:46.352Z,54.40
2018-06-01T12:18:14.218Z,53.80
2018-06-01T12:20:42.691Z,54.10
2018-06-01T12:23:10.933Z,54.90
2018-06-01T12:25:39.499Z,52.00
2018-06-01T12:28:07.216Z,51.90
2018-06-01T12:30:34.909Z,52.20
2018-06-01T12:33:02.723Z,52.10
2018-06-01T12:35:30.429Z,52.70
2018-06-01T12:37:57.962Z,50.10
2018-06-01T12:40:25.501Z,49.40
2018-06-01T12:42:53.371Z,45.70
2018-06-01T12:45:22.838Z,47.60
2018-06-01T12:47:53.534Z,47.60
2018-06-01T12:50:21.122Z,46.20
2018-06-01T12:52:48.873Z,46.30
2018-06-01T12:55:16.906Z,44.50
2018-06-01T12:57:44.734Z,43.10
2018-06-01T13:00:12.575Z,43.70
2018-06-01T13:02:40.150Z,44.80
2018-06-01T13:05:07.715Z,42.50
2018-06-01T13:07:35.954Z,40.90
2018-06-01T13:10:04.559Z,41.50
2018-06-01T13:12:32.125Z,40.50
2018-06-01T13:14:59.842Z,41.70
2018-06-01T13:17:28.207Z,42.00
2018-06-01T13:19:57.213Z,40.30
2018-06-01T13:22:25.571Z,41.60
2018-06-01T13:24:53.400Z,41.60
2018-06-01T13:27:21.578Z,41.00
2018-06-01T13:29:49.150Z,38.90
2018-06-01T13:32:16.799Z,38.30
2018-06-01T13:34:44.648Z,38.50
2018-06-01T13:37:12.186Z,38.40
2018-06-01T13:39:40.789Z,36.60
2018-06-01T13:42:08.518Z,36.60
2018-06-01T13:44:36.162Z,36.90
2018-06-01T13:47:03.699Z,37.50
2018-06-01T13:49:31.383Z,36.50
2018-06-01T13:51:58.945Z,36.10
2018-06-01T13:54:26.798Z,36.10
2018-06-01T13:56:54.438Z,35.80
2018-06-01T13:59:22.105Z,35.90
2018-06-01T14:01:49.655Z,36.40
2018-06-01T14:04:17.266Z,36.20
2018-06-01T14:06:45.692Z,36.40
2018-06-01T14:09:13.384Z,35.90
2018-06-01T14:11:41.982Z,36.30
2018-06-01T14:14:09.952Z,36.50
2018-06-01T14:16:37.773Z,37.30
2018-06-01T14:19:06.286Z,36.00
2018-06-01T14:21:34.087Z,35.40
2018-06-01T14:24:01.781Z,35.40
2018-06-01T14:26:30.684Z,36.00
2018-06-01T14:28:58.920Z,35.80
2018-06-01T14:31:26.500Z,36.90
2018-06-01T14:33:54.202Z,35.90
2018-06-01T14:36:21.865Z,36.40
2018-06-01T14:38:49.413Z,35.20
2018-06-01T14:41:17.250Z,35.70
2018-06-01T14:43:45.615Z,36.90
2018-06-01T14:46:13.359Z,37.00
2018-06-01T14:48:40.942Z,37.50
2018-06-01T14:51:08.659Z,37.90
2018-06-01T14:53:36.224Z,39.30
2018-06-01T14:56:03.880Z,39.90
2018-06-01T14:58:31.481Z,39.60
2018-06-01T15:00:59.164Z,40.10
2018-06-01T15:03:27.583Z,40.60
2018-06-01T15:05:55.903Z,40.60
2018-06-01T15:08:24.472Z,40.60
2018-06-01T15:10:52.056Z,42.50
2018-06-01T15:13:22.438Z,43.90
2018-06-01T15:15:50.004Z,44.50
2018-06-01T15:18:17.845Z,43.90
2018-06-01T15:20:45.432Z,43.60
2018-06-01T15:23:12.987Z,45.10
2018-06-01T15:25:40.600Z,43.30
2018-06-01T15:28:08.102Z,44.60
2018-06-01T15:30:35.876Z,46.70
2018-06-01T15:33:03.716Z,46.20
2018-06-01T15:35:32.696Z,46.30
2018-06-01T15:38:01.310Z,47.70
2018-06-01T15:40:28.855Z,48.40
2018-06-01T15:42:56.425Z,47.60
2018-06-01T15:45:24.524Z,46.10
2018-06-01T15:47:52.125Z,47.90
2018-06-01T15:50:20.862Z,47.60
2018-06-01T15:52:48.432Z,47.00
2018-06-01T15:55:17.014Z,46.20
2018-06-01T15:57:44.548Z,46.20
2018-06-01T16:00:12.178Z,46.00
2018-06-01T16:02:40.515Z,46.40
2018-06-01T16:05:08.318Z,46.40
2018-06-01T16:07:35.909Z,46.00
2018-06-01T16:10:03.470Z,46.60
2018-06-01T16:12:31.157Z,48.30
2018-06-01T16:14:58.727Z,49.60
2018-06-01T16:17:26.323Z,50.50
2018-06-01T16:19:53.961Z,51.30
2018-06-01T16:22:21.756Z,51.30
2018-06-01T16:24:49.442Z,52.70
2018-06-01T16:27:17.385Z,51.30
2018-06-01T16:29:45.277Z,52.30
2018-06-01T16:32:13.869Z,54.80
2018-06-01T16:34:41.387Z,54.80
2018-06-01T16:37:09.373Z,56.10
2018-06-01T16:39:37.403Z,59.00
2018-06-01T16:42:05.164Z,62.80
2018-06-01T16:44:34.052Z,64.90
2018-06-01T16:47:03.081Z,67.30
2018-06-01T16:49:31.470Z,66.40
2018-06-01T16:52:00.405Z,75.60
2018-06-01T16:54:28.100Z,75.80
2018-06-01T16:56:55.932Z,84.30
2018-06-01T16:59:23.536Z,91.30
2018-06-01T17:01:51.132Z,93.80
2018-06-01T17:04:20.324Z,96.10
2018-06-01T17:06:48.645Z,97.60
2018-06-01T17:09:16.524Z,97.80
2018-06-01T17:11:44.094Z,97.50
2018-06-01T17:14:11.651Z,99.00
2018-06-01T17:16:39.165Z,98.70
2018-06-01T17:19:06.695Z,99.90
2018-06-01T17:21:34.259Z,99.90
2018-06-01T17:24:01.842Z,99.90
2018-06-01T17:26:29.388Z,99.90
2018-06-01T17:28:57.833Z,99.90
2018-06-01T17:31:25.425Z,99.90
2018-06-01T17:33:53.773Z,99.90
2018-06-01T17:36:21.360Z,99.90
2018-06-01T17:38:48.944Z,99.90
2018-06-01T17:41:18.046Z,99.90
2018-06-01T17:43:45.582Z,99.90
2018-06-01T17:46:13.119Z,99.90
2018-06-01T17:48:40.664Z,99.90
2018-06-01T17:51:08.958Z,99.90
2018-06-01T17:53:36.508Z,99.90
2018-06-01T17:56:04.040Z,99.90
2018-06-01T17:58:31.765Z,99.90
2018-06-01T18:00:59.628Z,99.90
2018-06-01T18:03:27.333Z,99.90
2018-06-01T18:05:55.073Z,99.90
2018-06-01T18:08:22.886Z,99.90
2018-06-01T18:10:50.471Z,99.90
2018-06-01T18:13:18.050Z,99.90
2018-06-01T18:15:45.578Z,99.90
2018-06-01T18:18:13.876Z,99.90
2018-06-01T18:20:41.792Z,99.90
2018-06-01T18:23:09.825Z,99.90
2018-06-01T18:25:38.761Z,99.90
2018-06-01T18:28:06.352Z,99.90
2018-06-01T18:30:34.097Z,99.90
2018-06-01T18:33:02.837Z,99.90
2018-06-01T18:35:31.156Z,99.90
2018-06-01T18:37:58.830Z,99.90
2018-06-01T18:40:27.904Z,99.90
2018-06-01T18:42:56.113Z,99.90
2018-06-01T18:45:24.454Z,99.90
2018-06-01T18:47:52.058Z,99.90
2018-06-01T18:50:19.606Z,99.90
2018-06-01T18:52:47.139Z,99.90
2018-06-01T18:55:14.775Z,99.90
2018-06-01T18:57:42.379Z,99.90
2018-06-01T19:00:09.977Z,99.90
2018-06-01T19:02:38.272Z,99.90
2018-06-01T19:05:05.949Z,99.90
2018-06-01T19:07:33.558Z,99.90
2018-06-01T19:10:02.613Z,99.90
2018-06-01T19:12:30.223Z,99.90
2018-06-01T19:14:57.890Z,99.90
2018-06-01T19:17:25.513Z,99.90
2018-06-01T19:19:53.061Z,99.90
2018-06-01T19:22:20.742Z,99.90
2018-06-01T19:24:48.423Z,99.90
2018-06-01T19:27:16.012Z,99.90
2018-06-01T19:29:43.819Z,99.90
2018-06-01T19:32:11.408Z,99.90
2018-06-01T19:34:39.145Z,99.90
2018-06-01T19:37:06.691Z,99.90
2018-06-01T19:39:34.230Z,99.90
2018-06-01T19:42:02.816Z,99.90
2018-06-01T19:44:31.134Z,99.90
2018-06-01T19:46:58.702Z,99.90
2018-06-01T19:49:27.191Z,99.90
2018-06-01T19:51:54.716Z,99.90
2018-06-01T19:54:22.312Z,99.90
2018-06-01T19:56:49.875Z,99.90
2018-06-01T19:59:17.397Z,99.90
2018-06-01T20:01:44.939Z,99.90
2018-06-01T20:04:12.577Z,99.90
2018-06-01T20:06:42.414Z,99.90
2018-06-01T20:09:09.944Z,99.90
2018-06-01T20:11:37.528Z,99.90
2018-06-01T20:14:06.467Z,99.90
2018-06-01T20:16:34.202Z,99.90
2018-06-01T20:19:01.846Z,99.90
2018-06-01T20:21:29.415Z,99.90
2018-06-01T20:23:57.012Z,99.90
2018-06-01T20:26:24.566Z,99.90
2018-06-01T20:28:52.191Z,99.90
2018-06-01T20:31:19.912Z,99.90
2018-06-01T20:33:47.450Z,99.90
2018-06-01T20:36:15.106Z,99.90
2018-06-01T20:38:42.676Z,99.90
2018-06-01T20:41:10.431Z,99.90
2018-06-01T20:43:38.011Z,99.90
2018-06-01T20:46:05.540Z,99.90
2018-06-01T20:48:33.176Z,99.90
2018-06-01T20:51:00.875Z,99.90
2018-06-01T20:53:28.435Z,99.90
2018-06-01T20:55:56.073Z,99.90
2018-06-01T20:58:23.645Z,99.90
2018-06-01T21:00:51.173Z,99.90
2018-06-01T21:03:18.746Z,99.90
2018-06-01T21:05:47.064Z,99.90
2018-06-01T21:08:14.885Z,99.90
2018-06-01T21:10:43.243Z,99.90
2018-06-01T21:13:10.885Z,99.90
2018-06-01T21:15:38.423Z,99.90
2018-06-01T21:18:06.053Z,99.90
2018-06-01T21:20:34.689Z,99.90
2018-06-01T21:23:04.934Z,99.90
2018-06-01T21:25:33.445Z,99.90
2018-06-01T21:28:00.987Z,99.90
2018-06-01T21:30:28.609Z,99.90
2018-06-01T21:32:56.283Z,99.90
2018-06-01T21:35:23.967Z,99.90
2018-06-01T21:37:51.506Z,99.90
2018-06-01T21:40:19.037Z,99.90
2018-06-01T21:42:46.726Z,99.90
2018-06-01T21:45:14.348Z,99.90
2018-06-01T21:47:42.046Z,99.90
2018-06-01T21:50:09.625Z,99.90
2018-06-01T21:52:37.269Z,99.90
2018-06-01T21:55:05.604Z,99.90
2018-06-01T21:57:33.360Z,99.90
2018-06-01T22:00:00.894Z,99.90
2018-06-01T22:02:28.428Z,99.90
2018-06-01T22:04:56.050Z,99.90
2018-06-01T22:07:23.665Z,99.90
2018-06-01T22:09:51.206Z,99.90
2018-06-01T22:12:18.727Z,99.90
2018-06-01T22:14:46.343Z,99.90
2018-06-01T22:17:13.995Z,99.90
2018-06-01T22:19:41.686Z,99.90
2018-06-01T22:22:09.212Z,99.90
2018-06-01T22:24:36.948Z,99.90
2018-06-01T22:27:05.739Z,99.90
2018-06-01T22:29:33.290Z,99.90
2018-06-01T22:32:00.876Z,99.90
2018-06-01T22:34:28.448Z,99.90
2018-06-01T22:36:56.192Z,99.90
2018-06-01T22:39:23.890Z,99.90
2018-06-01T22:41:51.659Z,99.90
2018-06-01T22:44:19.376Z,99.90
2018-06-01T22:46:47.777Z,99.90
2018-06-01T22:49:15.339Z,99.90
2018-06-01T22:51:43.009Z,99.90
2018-06-01T22:54:10.569Z,99.90
2018-06-01T22:56:38.091Z,99.90
2018-06-01T22:59:06.401Z,99.90
2018-06-01T23:01:34.572Z,99.90
2018-06-01T23:04:02.108Z,99.90
2018-06-01T23:06:30.795Z,99.90
2018-06-01T23:08:58.359Z,99.90
2018-06-01T23:11:26.356Z,99.90
2018-06-01T23:13:53.990Z,99.90
2018-06-01T23:16:22.466Z,99.90
2018-06-01T23:18:50.146Z,99.90
2018-06-01T23:21:17.675Z,99.90
2018-06-01T23:23:45.216Z,99.90
2018-06-01T23:26:12.737Z,99.90
2018-06-01T23:28:40.261Z,99.90
2018-06-01T23:31:08.180Z,99.90
2018-06-01T23:33:35.738Z,99.90
2018-06-01T23:36:03.342Z,99.90
2018-06-01T23:38:30.940Z,99.90
2018-06-01T23:40:58.719Z,99.90
2018-06-01T23:43:26.478Z,99.90
2018-06-01T23:45:54.002Z,99.90
2018-06-01T23:48:22.285Z,99.90
2018-06-01T23:50:50.597Z,99.90
2018-06-01T23:53:18.103Z,99.90
2018-06-01T23:55:45.775Z,99.90
2018-06-01T23:58:14.180Z,99.90
